createdAt,value
2019-05-16T00:00:04.016Z,0.00
2019-05-16T00:01:03.909Z,0.00
2019-05-16T00:02:03.806Z,0.00
2019-05-16T00:03:03.699Z,0.00
2019-05-16T00:04:03.597Z,0.00
2019-05-16T00:05:03.493Z,0.00
2019-05-16T00:06:03.391Z,0.00
2019-05-16T00:07:03.285Z,0.00
2019-05-16T00:08:03.222Z,0.00
2019-05-16T00:09:03.080Z,0.00
2019-05-16T00:10:02.976Z,0.00
2019-05-16T00:11:02.869Z,0.00
2019-05-16T00:12:02.767Z,0.00
2019-05-16T00:13:02.665Z,0.00
2019-05-16T00:14:02.596Z,0.00
2019-05-16T00:15:02.523Z,0.00
2019-05-16T00:16:02.353Z,0.00
2019-05-16T00:17:02.247Z,0.00
2019-05-16T00:18:02.147Z,0.00
2019-05-16T00:19:02.043Z,0.00
2019-05-16T00:20:01.951Z,0.00
2019-05-16T00:21:01.835Z,0.00
2019-05-16T00:22:01.729Z,0.00
2019-05-16T00:23:01.627Z,0.00
2019-05-16T00:24:01.526Z,0.00
2019-05-16T00:25:01.418Z,0.00
2019-05-16T00:26:01.315Z,0.00
2019-05-16T00:27:01.212Z,0.00
2019-05-16T00:28:01.110Z,0.00
2019-05-16T00:29:01.004Z,0.00
2019-05-16T00:30:00.899Z,0.00
2019-05-16T00:31:00.795Z,0.00
2019-05-16T00:32:00.693Z,0.00
2019-05-16T00:33:00.593Z,0.00
2019-05-16T00:34:00.515Z,0.00
2019-05-16T00:35:00.384Z,0.00
2019-05-16T00:36:05.164Z,0.00
2019-05-16T00:37:00.172Z,0.00
2019-05-16T00:38:00.068Z,0.00
2019-05-16T00:38:59.965Z,0.00
2019-05-16T00:39:59.862Z,0.00
2019-05-16T00:40:59.756Z,0.00
2019-05-16T00:41:59.651Z,0.00
2019-05-16T00:42:59.546Z,0.00
2019-05-16T00:43:59.445Z,0.00
2019-05-16T00:44:59.339Z,0.00
2019-05-16T00:45:59.233Z,0.00
2019-05-16T00:46:59.139Z,0.00
2019-05-16T00:47:59.027Z,0.00
2019-05-16T00:48:59.063Z,0.00
2019-05-16T00:49:58.823Z,0.00
2019-05-16T00:50:58.711Z,0.00
2019-05-16T00:51:58.613Z,0.00
2019-05-16T00:52:58.970Z,0.00
2019-05-16T00:53:58.851Z,0.00
2019-05-16T00:54:58.295Z,0.00
2019-05-16T00:55:58.507Z,0.00
2019-05-16T00:56:58.094Z,0.00
2019-05-16T00:57:58.417Z,0.00
2019-05-16T00:58:58.767Z,0.00
2019-05-16T00:59:59.189Z,0.00
2019-05-16T01:00:59.342Z,0.00
2019-05-16T01:01:58.744Z,0.00
2019-05-16T01:02:57.870Z,0.00
2019-05-16T01:03:58.586Z,0.00
2019-05-16T01:04:58.936Z,0.00
2019-05-16T01:05:58.257Z,0.00
2019-05-16T01:06:58.566Z,0.00
2019-05-16T01:07:58.467Z,0.00
2019-05-16T01:08:57.977Z,0.00
2019-05-16T01:09:58.308Z,0.00
2019-05-16T01:10:58.508Z,0.00
2019-05-16T01:11:57.957Z,0.00
2019-05-16T01:12:58.409Z,0.00
2019-05-16T01:13:57.851Z,0.00
2019-05-16T01:14:58.282Z,0.00
2019-05-16T01:15:57.875Z,0.00
2019-05-16T01:16:58.006Z,0.00
2019-05-16T01:17:55.896Z,0.00
2019-05-16T01:18:55.792Z,0.00
2019-05-16T01:19:57.724Z,0.00
2019-05-16T01:20:55.584Z,0.00
2019-05-16T01:21:55.478Z,0.00
2019-05-16T01:22:55.374Z,0.00
2019-05-16T01:23:55.268Z,0.00
2019-05-16T01:24:55.164Z,0.00
2019-05-16T01:25:55.062Z,0.00
2019-05-16T01:26:54.956Z,0.00
2019-05-16T01:27:54.853Z,0.00
2019-05-16T01:28:54.747Z,0.00
2019-05-16T01:29:54.643Z,0.00
2019-05-16T01:30:54.538Z,0.00
2019-05-16T01:31:54.503Z,0.00
2019-05-16T01:32:54.329Z,0.00
2019-05-16T01:33:54.232Z,0.00
2019-05-16T01:34:54.121Z,0.00
2019-05-16T01:35:54.015Z,0.00
2019-05-16T01:36:53.914Z,0.00
2019-05-16T01:37:53.806Z,0.00
2019-05-16T01:38:53.702Z,0.00
2019-05-16T01:39:53.597Z,0.00
2019-05-16T01:40:53.492Z,0.00
2019-05-16T01:41:53.389Z,0.00
2019-05-16T01:42:53.286Z,0.00
2019-05-16T01:43:53.179Z,0.00
2019-05-16T01:44:53.080Z,0.00
2019-05-16T01:45:52.972Z,0.00
2019-05-16T01:46:52.866Z,0.00
2019-05-16T01:47:52.762Z,0.00
2019-05-16T01:48:52.656Z,0.00
2019-05-16T01:49:52.552Z,0.00
2019-05-16T01:50:52.486Z,0.00
2019-05-16T01:51:52.407Z,0.00
2019-05-16T01:52:52.237Z,0.00
2019-05-16T01:53:52.133Z,0.00
2019-05-16T01:54:52.028Z,0.00
2019-05-16T01:55:51.922Z,0.00
2019-05-16T01:56:51.818Z,0.00
2019-05-16T01:57:51.712Z,0.00
2019-05-16T01:58:51.610Z,0.00
2019-05-16T01:59:51.506Z,0.00
2019-05-16T02:01:03.162Z,0.00
2019-05-16T02:01:51.296Z,0.00
2019-05-16T02:02:51.192Z,0.00
2019-05-16T02:03:51.088Z,0.00
2019-05-16T02:04:50.982Z,0.00
2019-05-16T02:05:50.877Z,0.00
2019-05-16T02:06:54.696Z,0.00
2019-05-16T02:07:50.668Z,0.00
2019-05-16T02:08:50.562Z,0.00
2019-05-16T02:09:50.461Z,0.00
2019-05-16T02:10:50.392Z,0.00
2019-05-16T02:11:50.251Z,0.00
2019-05-16T02:12:50.146Z,0.00
2019-05-16T02:13:50.042Z,0.00
2019-05-16T02:14:49.937Z,0.00
2019-05-16T02:15:49.833Z,0.00
2019-05-16T02:16:49.730Z,0.00
2019-05-16T02:17:49.625Z,0.00
2019-05-16T02:18:49.520Z,0.00
2019-05-16T02:19:49.414Z,0.00
2019-05-16T02:20:49.311Z,0.00
2019-05-16T02:21:50.687Z,0.00
2019-05-16T02:22:49.102Z,0.00
2019-05-16T02:23:51.591Z,0.00
2019-05-16T02:24:48.894Z,0.00
2019-05-16T02:25:49.099Z,0.00
2019-05-16T02:26:52.014Z,0.00
2019-05-16T02:27:48.957Z,0.00
2019-05-16T02:28:50.537Z,0.00
2019-05-16T02:29:50.574Z,0.00
2019-05-16T02:30:51.384Z,0.00
2019-05-16T02:31:51.083Z,0.00
2019-05-16T02:32:51.934Z,0.00
2019-05-16T02:33:50.819Z,0.00
2019-05-16T02:34:47.853Z,0.00
2019-05-16T02:35:54.816Z,0.00
2019-05-16T02:37:04.876Z,0.00
2019-05-16T02:37:47.541Z,0.00
2019-05-16T02:38:47.434Z,0.00
2019-05-16T02:39:47.330Z,0.00
2019-05-16T02:40:47.224Z,0.00
2019-05-16T02:41:47.123Z,0.00
2019-05-16T02:42:47.020Z,0.00
2019-05-16T02:43:46.914Z,0.00
2019-05-16T02:44:46.807Z,0.00
2019-05-16T02:45:46.704Z,4.00
2019-05-16T02:46:46.599Z,4.00
2019-05-16T02:47:46.493Z,4.00
2019-05-16T02:48:46.402Z,4.00
2019-05-16T02:49:46.347Z,4.00
2019-05-16T02:50:46.181Z,4.00
2019-05-16T02:51:46.082Z,4.00
2019-05-16T02:52:45.977Z,4.00
2019-05-16T02:53:45.865Z,8.00
2019-05-16T02:54:45.764Z,4.00
2019-05-16T02:55:45.658Z,4.00
2019-05-16T02:56:45.560Z,8.00
2019-05-16T02:57:45.449Z,8.00
2019-05-16T02:58:45.362Z,8.00
2019-05-16T02:59:45.253Z,12.00
2019-05-16T03:00:45.149Z,8.00
2019-05-16T03:01:45.038Z,12.00
2019-05-16T03:02:44.929Z,12.00
2019-05-16T03:03:44.825Z,12.00
2019-05-16T03:04:44.718Z,12.00
2019-05-16T03:05:44.616Z,12.00
2019-05-16T03:06:44.513Z,16.00
2019-05-16T03:07:47.059Z,16.00
2019-05-16T03:08:44.385Z,20.00
2019-05-16T03:09:44.198Z,20.00
2019-05-16T03:10:44.094Z,24.00
2019-05-16T03:11:43.991Z,28.00
2019-05-16T03:12:43.969Z,28.00
2019-05-16T03:13:43.781Z,32.00
2019-05-16T03:14:43.673Z,36.00
2019-05-16T03:15:43.569Z,48.00
2019-05-16T03:16:43.466Z,60.00
2019-05-16T03:17:43.359Z,56.00
2019-05-16T03:18:43.268Z,72.00
2019-05-16T03:19:43.155Z,92.00
2019-05-16T03:20:43.046Z,112.00
2019-05-16T03:21:42.943Z,128.00
2019-05-16T03:22:42.894Z,160.00
2019-05-16T03:23:42.731Z,176.00
2019-05-16T03:24:42.626Z,212.00
2019-05-16T03:25:42.523Z,212.00
2019-05-16T03:26:42.416Z,248.00
2019-05-16T03:27:42.350Z,292.00
2019-05-16T03:28:42.228Z,284.00
2019-05-16T03:29:42.108Z,284.00
2019-05-16T03:30:44.541Z,336.00
2019-05-16T03:31:44.395Z,352.00
2019-05-16T03:32:44.657Z,348.00
2019-05-16T03:33:50.494Z,384.00
2019-05-16T03:34:44.095Z,356.00
2019-05-16T03:35:44.858Z,360.00
2019-05-16T03:36:43.786Z,388.00
2019-05-16T03:37:55.172Z,400.00
2019-05-16T03:38:41.518Z,388.00
2019-05-16T03:39:41.051Z,388.00
2019-05-16T03:40:41.327Z,408.00
2019-05-16T03:41:41.477Z,448.00
2019-05-16T03:42:41.692Z,428.00
2019-05-16T03:43:41.237Z,396.00
2019-05-16T03:44:41.057Z,496.00
2019-05-16T03:45:41.795Z,532.00
2019-05-16T03:46:41.298Z,524.00
2019-05-16T03:47:42.679Z,672.00
2019-05-16T03:48:40.861Z,796.00
2019-05-16T03:49:42.227Z,884.00
2019-05-16T03:50:41.290Z,892.00
2019-05-16T03:51:41.445Z,1124.00
2019-05-16T03:52:43.339Z,1184.00
2019-05-16T03:53:40.374Z,1056.00
2019-05-16T03:54:41.990Z,936.00
2019-05-16T03:55:40.719Z,1040.00
2019-05-16T03:56:40.811Z,988.00
2019-05-16T03:57:41.487Z,908.00
2019-05-16T03:58:41.612Z,764.00
2019-05-16T03:59:40.869Z,756.00
2019-05-16T04:00:45.282Z,712.00
2019-05-16T04:01:40.934Z,656.00
2019-05-16T04:02:44.776Z,604.00
2019-05-16T04:03:41.425Z,556.00
2019-05-16T04:04:41.486Z,544.00
2019-05-16T04:05:41.186Z,528.00
2019-05-16T04:06:41.389Z,488.00
2019-05-16T04:07:41.066Z,496.00
2019-05-16T04:08:41.007Z,552.00
2019-05-16T04:09:40.902Z,560.00
2019-05-16T04:10:40.817Z,560.00
2019-05-16T04:11:37.706Z,616.00
2019-05-16T04:12:37.598Z,656.00
2019-05-16T04:13:40.796Z,780.00
2019-05-16T04:14:40.639Z,868.00
2019-05-16T04:15:40.571Z,1156.00
2019-05-16T04:16:37.181Z,1148.00
2019-05-16T04:17:37.079Z,1468.00
2019-05-16T04:18:36.977Z,1424.00
2019-05-16T04:19:36.873Z,1508.00
2019-05-16T04:20:36.765Z,1484.00
2019-05-16T04:21:36.662Z,1600.00
2019-05-16T04:22:36.556Z,1356.00
2019-05-16T04:23:36.457Z,1236.00
2019-05-16T04:24:36.376Z,1284.00
2019-05-16T04:25:36.288Z,1132.00
2019-05-16T04:26:36.250Z,1424.00
2019-05-16T04:27:36.035Z,1340.00
2019-05-16T04:28:35.930Z,1432.00
2019-05-16T04:29:35.829Z,1488.00
2019-05-16T04:30:35.726Z,1728.00
2019-05-16T04:31:35.625Z,1636.00
2019-05-16T04:32:35.515Z,2192.00
2019-05-16T04:33:35.411Z,1600.00
2019-05-16T04:34:35.307Z,1396.00
2019-05-16T04:35:35.203Z,1240.00
2019-05-16T04:36:35.104Z,1084.00
2019-05-16T04:37:34.996Z,1172.00
2019-05-16T04:38:41.333Z,1032.00
2019-05-16T04:39:34.787Z,816.00
2019-05-16T04:40:34.682Z,956.00
2019-05-16T04:41:34.581Z,1012.00
2019-05-16T04:42:34.479Z,940.00
2019-05-16T04:43:34.373Z,820.00
2019-05-16T04:44:34.292Z,776.00
2019-05-16T04:45:34.196Z,732.00
2019-05-16T04:46:34.060Z,624.00
2019-05-16T04:47:33.958Z,492.00
2019-05-16T04:48:33.853Z,636.00
2019-05-16T04:49:33.747Z,700.00
2019-05-16T04:50:33.646Z,724.00
2019-05-16T04:51:33.540Z,752.00
2019-05-16T04:52:33.435Z,792.00
2019-05-16T04:53:33.334Z,740.00
2019-05-16T04:54:33.230Z,740.00
2019-05-16T04:55:33.123Z,680.00
2019-05-16T04:56:33.020Z,676.00
2019-05-16T04:57:32.916Z,588.00
2019-05-16T04:58:32.812Z,560.00
2019-05-16T04:59:32.708Z,536.00
2019-05-16T05:00:32.603Z,496.00
2019-05-16T05:01:32.502Z,652.00
2019-05-16T05:02:32.396Z,596.00
2019-05-16T05:03:32.293Z,652.00
2019-05-16T05:04:32.239Z,664.00
2019-05-16T05:05:33.394Z,768.00
2019-05-16T05:06:31.980Z,756.00
2019-05-16T05:07:31.876Z,812.00
2019-05-16T05:08:48.717Z,764.00
2019-05-16T05:09:31.862Z,764.00
2019-05-16T05:10:31.563Z,880.00
2019-05-16T05:11:31.460Z,868.00
2019-05-16T05:12:31.558Z,840.00
2019-05-16T05:13:31.251Z,816.00
2019-05-16T05:14:31.149Z,808.00
2019-05-16T05:15:31.047Z,728.00
2019-05-16T05:16:30.941Z,692.00
2019-05-16T05:17:30.862Z,764.00
2019-05-16T05:18:30.733Z,1000.00
2019-05-16T05:19:30.767Z,968.00
2019-05-16T05:20:30.545Z,1008.00
2019-05-16T05:21:31.395Z,960.00
2019-05-16T05:22:30.572Z,1104.00
2019-05-16T05:23:30.352Z,1040.00
2019-05-16T05:24:30.305Z,1028.00
2019-05-16T05:25:30.846Z,1236.00
2019-05-16T05:26:30.560Z,1220.00
2019-05-16T05:27:30.297Z,1220.00
2019-05-16T05:28:30.065Z,1296.00
2019-05-16T05:29:30.680Z,1512.00
2019-05-16T05:30:30.368Z,1352.00
2019-05-16T05:31:34.342Z,1196.00
2019-05-16T05:32:30.635Z,1252.00
2019-05-16T05:33:30.309Z,1260.00
2019-05-16T05:34:30.508Z,1192.00
2019-05-16T05:35:31.104Z,1188.00
2019-05-16T05:36:30.099Z,1132.00
2019-05-16T05:37:29.802Z,1364.00
2019-05-16T05:38:30.847Z,1272.00
2019-05-16T05:39:30.304Z,1324.00
2019-05-16T05:40:29.666Z,1532.00
2019-05-16T05:41:30.174Z,1480.00
2019-05-16T05:42:30.366Z,1544.00
2019-05-16T05:43:30.335Z,1664.00
2019-05-16T05:44:28.044Z,1500.00
2019-05-16T05:45:27.931Z,1780.00
2019-05-16T05:46:27.830Z,1780.00
2019-05-16T05:47:30.492Z,1872.00
2019-05-16T05:48:30.558Z,1796.00
2019-05-16T05:49:30.020Z,2000.00
2019-05-16T05:50:27.420Z,1972.00
2019-05-16T05:51:27.311Z,1976.00
2019-05-16T05:52:30.040Z,2136.00
2019-05-16T05:53:27.104Z,2076.00
2019-05-16T05:54:26.997Z,1912.00
2019-05-16T05:55:26.897Z,2272.00
2019-05-16T05:56:26.795Z,2476.00
2019-05-16T05:57:26.687Z,2412.00
2019-05-16T05:58:26.584Z,2040.00
2019-05-16T05:59:26.481Z,2492.00
2019-05-16T06:00:26.381Z,2632.00
2019-05-16T06:01:26.270Z,3316.00
2019-05-16T06:02:26.167Z,3976.00
2019-05-16T06:03:26.101Z,4016.00
2019-05-16T06:04:25.958Z,3988.00
2019-05-16T06:05:25.858Z,3956.00
2019-05-16T06:06:25.752Z,4632.00
2019-05-16T06:07:25.649Z,3612.00
2019-05-16T06:08:25.545Z,3904.00
2019-05-16T06:09:29.021Z,3856.00
2019-05-16T06:10:25.339Z,3780.00
2019-05-16T06:11:25.234Z,4792.00
2019-05-16T06:12:25.133Z,4808.00
2019-05-16T06:13:25.027Z,4852.00
2019-05-16T06:14:24.923Z,6016.00
2019-05-16T06:15:24.821Z,6524.00
2019-05-16T06:16:24.719Z,6048.00
2019-05-16T06:17:24.612Z,5376.00
2019-05-16T06:18:24.508Z,4732.00
2019-05-16T06:19:24.405Z,4660.00
2019-05-16T06:20:24.303Z,4976.00
2019-05-16T06:21:24.200Z,4748.00
2019-05-16T06:22:24.148Z,4488.00
2019-05-16T06:23:24.029Z,3832.00
2019-05-16T06:24:23.890Z,4084.00
2019-05-16T06:25:23.787Z,3764.00
2019-05-16T06:26:23.684Z,3348.00
2019-05-16T06:27:23.581Z,3796.00
2019-05-16T06:28:23.476Z,3836.00
2019-05-16T06:29:23.372Z,4104.00
2019-05-16T06:30:23.272Z,3948.00
2019-05-16T06:31:23.168Z,4280.00
2019-05-16T06:32:23.063Z,4720.00
2019-05-16T06:33:22.962Z,4220.00
2019-05-16T06:34:22.864Z,4576.00
2019-05-16T06:35:24.143Z,4600.00
2019-05-16T06:36:22.652Z,4592.00
2019-05-16T06:37:22.546Z,4600.00
2019-05-16T06:38:22.445Z,4580.00
2019-05-16T06:39:22.341Z,4776.00
2019-05-16T06:40:22.238Z,4244.00
2019-05-16T06:41:22.135Z,4392.00
2019-05-16T06:42:22.125Z,3972.00
2019-05-16T06:43:21.932Z,4144.00
2019-05-16T06:44:21.827Z,4936.00
2019-05-16T06:45:21.723Z,4544.00
2019-05-16T06:46:21.618Z,4876.00
2019-05-16T06:47:23.089Z,4580.00
2019-05-16T06:48:21.694Z,4232.00
2019-05-16T06:49:21.310Z,4484.00
2019-05-16T06:50:21.208Z,4852.00
2019-05-16T06:51:21.105Z,4740.00
2019-05-16T06:52:21.004Z,4516.00
2019-05-16T06:53:21.279Z,5020.00
2019-05-16T06:54:20.894Z,4856.00
2019-05-16T06:55:20.696Z,5096.00
2019-05-16T06:56:20.585Z,4124.00
2019-05-16T06:57:20.674Z,4384.00
2019-05-16T06:58:22.210Z,4224.00
2019-05-16T06:59:20.383Z,3864.00
2019-05-16T07:00:21.014Z,3568.00
2019-05-16T07:01:20.878Z,4080.00
2019-05-16T07:02:30.345Z,3796.00
2019-05-16T07:03:20.453Z,3756.00
2019-05-16T07:04:20.105Z,4280.00
2019-05-16T07:05:20.801Z,4296.00
2019-05-16T07:06:45.534Z,4468.00
2019-05-16T07:07:20.497Z,4564.00
2019-05-16T07:08:20.544Z,4272.00
2019-05-16T07:09:20.633Z,4140.00
2019-05-16T07:10:20.383Z,3952.00
2019-05-16T07:11:20.155Z,3800.00
2019-05-16T07:12:20.262Z,4300.00
2019-05-16T07:13:19.721Z,4340.00
2019-05-16T07:14:22.539Z,3556.00
2019-05-16T07:15:20.465Z,4600.00
2019-05-16T07:16:20.440Z,4152.00
2019-05-16T07:17:20.240Z,3536.00
2019-05-16T07:18:20.748Z,4444.00
2019-05-16T07:19:20.635Z,4516.00
2019-05-16T07:20:20.709Z,4612.00
2019-05-16T07:21:19.970Z,4936.00
2019-05-16T07:22:20.341Z,4656.00
2019-05-16T07:23:17.808Z,4284.00
2019-05-16T07:24:19.776Z,5744.00
2019-05-16T07:25:17.601Z,5168.00
2019-05-16T07:26:17.500Z,5752.00
2019-05-16T07:27:17.398Z,5768.00
2019-05-16T07:28:17.293Z,4240.00
2019-05-16T07:29:17.192Z,5128.00
2019-05-16T07:30:17.087Z,5028.00
2019-05-16T07:31:19.027Z,4164.00
2019-05-16T07:32:16.880Z,5620.00
2019-05-16T07:33:16.777Z,5700.00
2019-05-16T07:34:16.675Z,5576.00
2019-05-16T07:35:16.572Z,5840.00
2019-05-16T07:36:16.471Z,5052.00
2019-05-16T07:37:16.366Z,5244.00
2019-05-16T07:38:16.264Z,4816.00
2019-05-16T07:39:16.163Z,4468.00
2019-05-16T07:40:22.976Z,3992.00
2019-05-16T07:41:15.981Z,3672.00
2019-05-16T07:42:15.850Z,3648.00
2019-05-16T07:43:15.752Z,4452.00
2019-05-16T07:44:15.646Z,4720.00
2019-05-16T07:45:15.550Z,4848.00
2019-05-16T07:46:15.442Z,4232.00
2019-05-16T07:47:15.337Z,4276.00
2019-05-16T07:48:15.241Z,3160.00
2019-05-16T07:49:15.130Z,2968.00
2019-05-16T07:50:15.032Z,3428.00
2019-05-16T07:51:14.927Z,2944.00
2019-05-16T07:52:14.825Z,3228.00
2019-05-16T07:53:14.721Z,2856.00
2019-05-16T07:54:14.616Z,3172.00
2019-05-16T07:55:14.531Z,3160.00
2019-05-16T07:56:14.409Z,3816.00
2019-05-16T07:57:19.530Z,3464.00
2019-05-16T07:58:14.204Z,4544.00
2019-05-16T07:59:14.101Z,3880.00
2019-05-16T08:00:14.021Z,5816.00
2019-05-16T08:01:13.949Z,5412.00
2019-05-16T08:02:13.792Z,4816.00
2019-05-16T08:03:13.686Z,4084.00
2019-05-16T08:04:13.584Z,3940.00
2019-05-16T08:05:13.483Z,4284.00
2019-05-16T08:06:13.381Z,3976.00
2019-05-16T08:07:13.276Z,3268.00
2019-05-16T08:08:13.172Z,3180.00
2019-05-16T08:09:13.174Z,3288.00
2019-05-16T08:10:12.967Z,3568.00
2019-05-16T08:11:12.869Z,3980.00
2019-05-16T08:12:12.759Z,3564.00
2019-05-16T08:13:13.135Z,4024.00
2019-05-16T08:14:12.554Z,3836.00
2019-05-16T08:15:12.450Z,3692.00
2019-05-16T08:16:12.348Z,3768.00
2019-05-16T08:17:12.246Z,3956.00
2019-05-16T08:18:12.151Z,3824.00
2019-05-16T08:19:12.044Z,4488.00
2019-05-16T08:20:11.987Z,3588.00
2019-05-16T08:21:16.604Z,3616.00
2019-05-16T08:22:11.732Z,3324.00
2019-05-16T08:23:11.629Z,3268.00
2019-05-16T08:25:11.423Z,3548.00
2019-05-16T08:26:11.317Z,3848.00
2019-05-16T08:28:11.660Z,5160.00
2019-05-16T08:29:13.421Z,4020.00
2019-05-16T08:32:11.504Z,4404.00
2019-05-16T08:33:13.489Z,4580.00
2019-05-16T08:34:12.215Z,3528.00
2019-05-16T08:35:11.270Z,3732.00
2019-05-16T08:36:11.940Z,4088.00
2019-05-16T08:37:32.925Z,4396.00
2019-05-16T08:38:13.521Z,3620.00
2019-05-16T08:39:11.101Z,3440.00
2019-05-16T08:40:11.515Z,4304.00
2019-05-16T08:41:14.313Z,4280.00
2019-05-16T08:42:13.143Z,4780.00
2019-05-16T08:43:11.808Z,4576.00
2019-05-16T08:44:12.263Z,4620.00
2019-05-16T08:45:12.769Z,4700.00
2019-05-16T08:46:12.267Z,4224.00
2019-05-16T08:47:11.959Z,3528.00
2019-05-16T08:48:11.328Z,3740.00
2019-05-16T08:49:12.013Z,3628.00
2019-05-16T08:50:05.208Z,3584.00
2019-05-16T08:50:10.257Z,4260.00
2019-05-16T08:50:11.912Z,3584.00
2019-05-16T08:50:13.744Z,3844.00
2019-05-16T08:51:11.940Z,3548.00
2019-05-16T08:52:11.367Z,3492.00
2019-05-16T08:53:13.058Z,3808.00
2019-05-16T08:54:12.971Z,4056.00
2019-05-16T08:55:12.361Z,4520.00
2019-05-16T08:56:12.411Z,3676.00
2019-05-16T08:57:25.526Z,2964.00
2019-05-16T08:58:13.215Z,2968.00
2019-05-16T08:59:07.947Z,3536.00
2019-05-16T09:00:07.897Z,3472.00
2019-05-16T09:01:07.722Z,4552.00
2019-05-16T09:02:12.045Z,4900.00
2019-05-16T09:03:07.512Z,4192.00
2019-05-16T09:04:07.471Z,3752.00
2019-05-16T09:05:13.208Z,3484.00
2019-05-16T09:06:07.203Z,3572.00
2019-05-16T09:07:07.099Z,3512.00
2019-05-16T09:08:07.010Z,3676.00
2019-05-16T09:09:22.320Z,3044.00
2019-05-16T09:10:38.904Z,3608.00
2019-05-16T09:10:39.169Z,4320.00
2019-05-16T09:11:27.005Z,4592.00
2019-05-16T09:12:07.875Z,4800.00
2019-05-16T09:13:07.244Z,4104.00
2019-05-16T09:14:08.001Z,3976.00
2019-05-16T09:15:07.664Z,3344.00
2019-05-16T09:16:07.748Z,3092.00
2019-05-16T09:17:07.465Z,4372.00
2019-05-16T09:18:07.513Z,5076.00
2019-05-16T09:19:07.807Z,4616.00
2019-05-16T09:20:07.425Z,4456.00
2019-05-16T09:21:07.322Z,4344.00
2019-05-16T09:22:07.355Z,4796.00
2019-05-16T09:23:07.418Z,4536.00
2019-05-16T09:24:06.794Z,4516.00
2019-05-16T09:25:07.595Z,5380.00
2019-05-16T09:26:07.310Z,5352.00
2019-05-16T09:27:10.875Z,5752.00
2019-05-16T09:28:07.137Z,6532.00
2019-05-16T09:29:07.996Z,5952.00
2019-05-16T09:30:07.052Z,5500.00
2019-05-16T09:31:06.849Z,4828.00
2019-05-16T09:32:12.708Z,4708.00
2019-05-16T09:33:06.932Z,4552.00
2019-05-16T09:34:04.318Z,4800.00
2019-05-16T09:35:04.246Z,5640.00
2019-05-16T09:36:04.111Z,6732.00
2019-05-16T09:37:04.021Z,6296.00
2019-05-16T09:38:03.907Z,6392.00
2019-05-16T09:39:03.834Z,6120.00
2019-05-16T09:40:03.699Z,5420.00
2019-05-16T09:41:03.598Z,4624.00
2019-05-16T09:42:03.495Z,4752.00
2019-05-16T09:43:03.391Z,5580.00
2019-05-16T09:44:03.289Z,5628.00
2019-05-16T09:45:03.187Z,5776.00
2019-05-16T09:46:04.088Z,5060.00
2019-05-16T09:47:02.980Z,4964.00
2019-05-16T09:48:02.876Z,4104.00
2019-05-16T09:49:16.617Z,3764.00
2019-05-16T09:50:02.700Z,4024.00
2019-05-16T09:51:02.573Z,5188.00
2019-05-16T09:52:02.465Z,5752.00
2019-05-16T09:53:02.362Z,6204.00
2019-05-16T09:54:02.267Z,5768.00
2019-05-16T09:55:02.168Z,7616.00
2019-05-16T09:56:02.052Z,6692.00
2019-05-16T09:57:01.957Z,6368.00
2019-05-16T09:58:01.875Z,5300.00
2019-05-16T09:59:01.803Z,5640.00
2019-05-16T10:00:01.643Z,5472.00
2019-05-16T10:01:01.540Z,5180.00
2019-05-16T10:02:01.435Z,4720.00
2019-05-16T10:03:01.329Z,4468.00
2019-05-16T10:04:01.231Z,4932.00
2019-05-16T10:05:01.132Z,4976.00
2019-05-16T10:06:01.022Z,6152.00
2019-05-16T10:07:00.922Z,6856.00
2019-05-16T10:08:00.816Z,7248.00
2019-05-16T10:09:00.712Z,6068.00
2019-05-16T10:10:00.614Z,6776.00
2019-05-16T10:11:00.507Z,6792.00
2019-05-16T10:12:11.868Z,5668.00
2019-05-16T10:13:00.302Z,4584.00
2019-05-16T10:14:00.198Z,4872.00
2019-05-16T10:15:00.095Z,5212.00
2019-05-16T10:15:59.991Z,4432.00
2019-05-16T10:16:59.889Z,4976.00
2019-05-16T10:17:59.854Z,4480.00
2019-05-16T10:18:59.684Z,4408.00
2019-05-16T10:20:00.241Z,4104.00
2019-05-16T10:20:59.476Z,4328.00
2019-05-16T10:22:00.350Z,4444.00
2019-05-16T10:22:59.269Z,5388.00
2019-05-16T10:23:59.167Z,5852.00
2019-05-16T10:24:59.065Z,7516.00
2019-05-16T10:25:58.972Z,6712.00
2019-05-16T10:26:58.859Z,7108.00
2019-05-16T10:27:58.755Z,8048.00
2019-05-16T10:28:58.654Z,7020.00
2019-05-16T10:30:01.047Z,5944.00
2019-05-16T10:30:58.447Z,5836.00
2019-05-16T10:31:58.347Z,6504.00
2019-05-16T10:33:00.777Z,8036.00
2019-05-16T10:33:58.575Z,7076.00
2019-05-16T10:34:58.037Z,7808.00
2019-05-16T10:35:58.171Z,8904.00
2019-05-16T10:36:57.830Z,9808.00
2019-05-16T10:37:57.746Z,11852.00
2019-05-16T10:38:59.026Z,12612.00
2019-05-16T10:39:59.842Z,12372.00
2019-05-16T10:40:57.416Z,11824.00
2019-05-16T10:41:57.507Z,11888.00
2019-05-16T10:42:57.906Z,12268.00
2019-05-16T10:43:57.108Z,11592.00
2019-05-16T10:44:57.702Z,11328.00
2019-05-16T10:45:56.903Z,11148.00
2019-05-16T10:46:56.802Z,12664.00
2019-05-16T10:47:56.699Z,11464.00
2019-05-16T10:48:57.755Z,11044.00
2019-05-16T10:49:56.577Z,12100.00
2019-05-16T10:50:57.645Z,12860.00
2019-05-16T10:51:57.704Z,11660.00
2019-05-16T10:53:20.257Z,11784.00
2019-05-16T10:54:09.061Z,13276.00
2019-05-16T10:55:01.894Z,11220.00
2019-05-16T10:55:57.125Z,11568.00
2019-05-16T10:56:57.713Z,10280.00
2019-05-16T10:57:56.750Z,8232.00
2019-05-16T10:59:26.001Z,10228.00
2019-05-16T11:00:06.651Z,9408.00
2019-05-16T11:01:15.132Z,9684.00
2019-05-16T11:01:56.348Z,9752.00
2019-05-16T11:02:58.732Z,9284.00
2019-05-16T11:03:56.832Z,8604.00
2019-05-16T11:05:02.824Z,8920.00
2019-05-16T11:06:03.120Z,8100.00
2019-05-16T11:06:57.123Z,9316.00
2019-05-16T11:07:57.123Z,10124.00
2019-05-16T11:08:57.007Z,8932.00
2019-05-16T11:09:59.328Z,9320.00
2019-05-16T11:10:54.979Z,8712.00
2019-05-16T11:11:56.967Z,9212.00
2019-05-16T11:12:59.332Z,9740.00
2019-05-16T11:13:54.047Z,8728.00
2019-05-16T11:14:53.945Z,8552.00
2019-05-16T11:15:53.842Z,9664.00
2019-05-16T11:16:53.811Z,9120.00
2019-05-16T11:17:53.702Z,9208.00
2019-05-16T11:18:53.537Z,9820.00
2019-05-16T11:19:53.432Z,8452.00
2019-05-16T11:20:53.332Z,8132.00
2019-05-16T11:21:53.233Z,7928.00
2019-05-16T11:22:53.127Z,8156.00
2019-05-16T11:23:53.028Z,8836.00
2019-05-16T11:24:52.925Z,8628.00
2019-05-16T11:25:55.340Z,8208.00
2019-05-16T11:26:52.723Z,7776.00
2019-05-16T11:27:52.622Z,8028.00
2019-05-16T11:28:52.524Z,7956.00
2019-05-16T11:29:52.423Z,7596.00
2019-05-16T11:30:52.353Z,7008.00
2019-05-16T11:31:52.218Z,8208.00
2019-05-16T11:32:52.114Z,8040.00
2019-05-16T11:33:52.014Z,6824.00
2019-05-16T11:34:51.912Z,7628.00
2019-05-16T11:35:51.809Z,9796.00
2019-05-16T11:36:51.755Z,8560.00
2019-05-16T11:37:51.671Z,8056.00
2019-05-16T11:38:51.507Z,7884.00
2019-05-16T11:39:51.402Z,8496.00
2019-05-16T11:40:51.301Z,7560.00
2019-05-16T11:41:51.200Z,6564.00
2019-05-16T11:43:05.573Z,6296.00
2019-05-16T11:43:50.997Z,6832.00
2019-05-16T11:44:50.898Z,7200.00
2019-05-16T11:45:50.796Z,7504.00
2019-05-16T11:46:50.721Z,8052.00
2019-05-16T11:47:50.591Z,6720.00
2019-05-16T11:48:50.491Z,6108.00
2019-05-16T11:49:50.388Z,6836.00
2019-05-16T11:50:50.289Z,8044.00
2019-05-16T11:51:50.189Z,7776.00
2019-05-16T11:52:50.088Z,7840.00
2019-05-16T11:53:49.985Z,7460.00
2019-05-16T11:54:49.884Z,9376.00
2019-05-16T11:55:55.492Z,10424.00
2019-05-16T11:56:49.725Z,12696.00
2019-05-16T11:57:49.657Z,10604.00
2019-05-16T11:58:49.482Z,12212.00
2019-05-16T11:59:49.378Z,13136.00
2019-05-16T12:00:49.278Z,14056.00
2019-05-16T12:01:49.176Z,13420.00
2019-05-16T12:02:49.076Z,10920.00
2019-05-16T12:03:48.974Z,11224.00
2019-05-16T12:04:48.873Z,11560.00
2019-05-16T12:05:48.783Z,10468.00
2019-05-16T12:06:48.673Z,9680.00
2019-05-16T12:07:48.967Z,9596.00
2019-05-16T12:08:48.470Z,9820.00
2019-05-16T12:09:55.058Z,11284.00
2019-05-16T12:10:48.270Z,9548.00
2019-05-16T12:11:48.168Z,10588.00
2019-05-16T12:12:48.067Z,10804.00
2019-05-16T12:13:47.966Z,10016.00
2019-05-16T12:14:47.868Z,9264.00
2019-05-16T12:15:47.773Z,8960.00
2019-05-16T12:16:47.704Z,9220.00
2019-05-16T12:18:00.242Z,10076.00
2019-05-16T12:18:47.466Z,8696.00
2019-05-16T12:19:49.034Z,8156.00
2019-05-16T12:20:47.296Z,7488.00
2019-05-16T12:21:47.168Z,7584.00
2019-05-16T12:22:47.063Z,8216.00
2019-05-16T12:23:47.285Z,8208.00